Time;durP1;ratioP1;P1;durP2;ratioP2;P2;SDS_P1;SDS_P2;PMS_P1;PMS_P2;Temp;Humidity;BMP_temperature;BMP_pressure;BME280_temperature;BME280_humidity;BME280_pressure;Samples;Min_cycle;Max_cycle;Signal;HPM_P1;HPM_P2
2023/09/01 00:00:18;;;;;;;;;;;;;;;21.83;54.49;101147.81;5066311;28;19913;-49
2023/09/01 00:02:43;;;;;;;;;;;;;;;21.83;54.38;101145.13;5063623;28;19917;-46
2023/09/01 00:05:08;;;;;;;;;;;;;;;21.82;54.42;101155.09;5062908;28;19916;-45
2023/09/01 00:07:33;;;;;;;;;;;;;;;21.81;54.22;101153.44;5062383;28;19987;-47
2023/09/01 00:09:59;;;;;;;;;;;;;;;21.81;54.28;101153.44;5063844;28;19935;-47
2023/09/01 00:12:24;;;;;;;;;;;;;;;21.81;54.12;101155.31;5063428;28;19935;-46
2023/09/01 00:14:49;;;;;;;;;;;;;;;21.79;54.21;101147.38;5063274;28;19932;-48
2023/09/01 00:17:15;;;;;;;;;;;;;;;21.79;54.05;101150.09;5062816;28;20352;-45
2023/09/01 00:19:40;;;;;;;;;;;;;;;21.78;53.89;101142.13;5062976;28;19984;-47
2023/09/01 00:22:05;;;;;;;;;;;;;;;21.78;53.84;101136.72;5062921;28;19925;-46
2023/09/01 00:24:32;;;;;;;;;;;;;;;21.77;54.10;101133.16;5061949;28;19913;-47
2023/09/01 00:26:57;;;;;;;;;;;;;;;21.76;54.16;101131.50;5063307;28;19921;-46
2023/09/01 00:29:22;;;;;;;;;;;;;;;21.76;53.80;101130.66;5063294;28;19956;-45
2023/09/01 00:31:47;;;;;;;;;;;;;;;21.75;54.06;101129.81;5063692;28;19913;-45
2023/09/01 00:34:13;;;;;;;;;;;;;;;21.75;54.03;101135.22;5062460;28;19931;-49
2023/09/01 00:36:38;;;;;;;;;;;;;;;21.74;53.91;101144.34;5062767;28;19948;-47
2023/09/01 00:39:03;;;;;;;;;;;;;;;21.74;54.11;101148.91;5063233;28;19941;-48
2023/09/01 00:41:28;;;;;;;;;;;;;;;21.73;53.72;101158.91;5062762;28;19916;-48
2023/09/01 00:43:54;;;;;;;;;;;;;;;21.73;53.68;101150.78;5062897;28;19917;-48
2023/09/01 00:46:19;;;;;;;;;;;;;;;21.73;54.01;101158.06;5060973;28;19952;-46
2023/09/01 00:48:44;;;;;;;;;;;;;;;21.72;53.92;101154.53;5062710;28;19912;-47
2023/09/01 00:51:09;;;;;;;;;;;;;;;21.71;53.71;101147.44;5063132;28;19999;-46
2023/09/01 00:53:36;;;;;;;;;;;;;;;21.70;53.92;101148.44;5063103;28;19916;-46
2023/09/01 00:56:03;;;;;;;;;;;;;;;21.69;53.72;101147.59;5063744;28;19912;-50
2023/09/01 00:58:28;;;;;;;;;;;;;;;21.68;53.65;101145.91;5063134;28;20425;-48
2023/09/01 01:00:57;;;;;;;;;;;;;;;21.69;54.01;101144.06;5062989;28;19983;-46
2023/09/01 01:03:22;;;;;;;;;;;;;;;21.67;53.92;101154.22;5062672;28;20019;-48
2023/09/01 01:05:50;;;;;;;;;;;;;;;21.67;53.93;101165.91;5077902;28;19924;-47
2023/09/01 01:08:22;;;;;;;;;;;;;;;21.67;53.76;101163.19;5062849;28;19912;-49
2023/09/01 01:10:48;;;;;;;;;;;;;;;21.65;53.73;101158.97;5061850;28;19921;-46
2023/09/01 01:13:13;;;;;;;;;;;;;;;21.65;53.80;101156.25;5062543;28;19916;-46
2023/09/01 01:15:39;;;;;;;;;;;;;;;21.64;53.66;101149.19;5061511;28;19920;-47
2023/09/01 01:18:05;;;;;;;;;;;;;;;21.63;53.69;101148.34;5078418;28;20204;-46
2023/09/01 01:20:31;;;;;;;;;;;;;;;21.63;53.77;101151.03;5062541;28;20377;-46
2023/09/01 01:22:57;;;;;;;;;;;;;;;21.62;53.79;101149.38;5065711;28;19920;-46
2023/09/01 01:25:22;;;;;;;;;;;;;;;21.62;53.70;101149.38;5067206;28;19995;-48
2023/09/01 01:27:47;;;;;;;;;;;;;;;21.60;53.91;101145.97;5066596;28;20054;-48
2023/09/01 01:30:13;;;;;;;;;;;;;;;21.61;53.69;101150.38;5065272;28;19923;-46
2023/09/01 01:32:39;;;;;;;;;;;;;;;21.60;53.85;101145.16;5066107;28;19917;-46
2023/09/01 01:35:09;;;;;;;;;;;;;;;21.59;53.59;101147.00;5066289;28;19920;-48
2023/09/01 01:37:38;;;;;;;;;;;;;;;21.58;53.85;101149.88;5081356;28;19916;-47
2023/09/01 01:40:05;;;;;;;;;;;;;;;21.58;53.83;101150.75;5064825;28;20331;-48
2023/09/01 01:42:30;;;;;;;;;;;;;;;21.58;53.52;101152.59;5064906;28;19912;-46
2023/09/01 01:44:55;;;;;;;;;;;;;;;21.58;53.65;101147.16;5066363;28;19986;-45
2023/09/01 01:47:20;;;;;;;;;;;;;;;21.56;53.54;101144.66;5064805;28;19913;-45
2023/09/01 01:49:45;;;;;;;;;;;;;;;21.56;53.58;101139.25;5066219;28;20300;-46
2023/09/01 01:52:11;;;;;;;;;;;;;;;21.56;53.65;101144.66;5065190;28;19913;-47
2023/09/01 01:54:36;;;;;;;;;;;;;;;21.55;53.56;101145.69;5065986;28;19920;-46
2023/09/01 01:57:01;;;;;;;;;;;;;;;21.54;53.57;101145.88;5066076;28;20422;-46
2023/09/01 01:59:26;;;;;;;;;;;;;;;21.53;53.61;101139.59;5066137;28;19948;-45
2023/09/01 02:01:51;;;;;;;;;;;;;;;21.53;53.56;101142.31;5066193;28;19976;-47
2023/09/01 02:04:17;;;;;;;;;;;;;;;21.53;53.56;101136.06;5065281;28;19928;-46
2023/09/01 02:06:42;;;;;;;;;;;;;;;21.52;53.48;101137.94;5065618;28;19917;-46
2023/09/01 02:09:09;;;;;;;;;;;;;;;21.51;53.62;101147.06;5065725;28;19928;-47
2023/09/01 02:11:35;;;;;;;;;;;;;;;21.50;53.38;101139.97;5066230;28;20354;-46
2023/09/01 02:14:00;;;;;;;;;;;;;;;21.51;53.52;101143.53;5063992;28;19962;-46
2023/09/01 02:16:25;;;;;;;;;;;;;;;21.49;53.40;101146.41;5062975;28;19917;-47
2023/09/01 02:18:50;;;;;;;;;;;;;;;21.49;53.34;101146.41;5065722;28;20031;-49
2023/09/01 02:21:22;;;;;;;;;;;;;;;21.48;53.50;101150.13;5065058;28;20362;-46
2023/09/01 02:23:47;;;;;;;;;;;;;;;21.47;53.51;101145.75;5063343;28;19916;-48
2023/09/01 02:26:19;;;;;;;;;;;;;;;21.46;53.36;101144.91;5065826;28;19992;-50
2023/09/01 02:28:44;;;;;;;;;;;;;;;21.45;53.60;101143.22;5064071;28;19928;-51
2023/09/01 02:31:10;;;;;;;;;;;;;;;21.44;53.33;101146.94;5065501;28;19921;-51
2023/09/01 02:33:35;;;;;;;;;;;;;;;21.45;53.50;101145.06;5065192;28;19913;-45
2023/09/01 02:36:19;;;;;;;;;;;;;;;21.44;53.74;101140.69;5064148;28;20000;-46
2023/09/01 02:38:44;;;;;;;;;;;;;;;21.43;53.53;101147.97;5065167;28;19917;-50
2023/09/01 02:41:09;;;;;;;;;;;;;;;21.42;53.44;101151.69;5065425;28;19923;-48
2023/09/01 02:43:34;;;;;;;;;;;;;;;21.41;53.42;101152.72;5064654;28;19919;-46
2023/09/01 02:46:00;;;;;;;;;;;;;;;21.41;53.41;101155.44;5065191;28;19927;-46
2023/09/01 02:48:26;;;;;;;;;;;;;;;21.40;53.30;101156.44;5063228;28;19916;-46
2023/09/01 02:50:51;;;;;;;;;;;;;;;21.40;53.56;101150.19;5064447;28;19912;-48
2023/09/01 02:53:16;;;;;;;;;;;;;;;21.39;53.28;101145.78;5064433;28;19943;-48
2023/09/01 02:55:41;;;;;;;;;;;;;;;21.38;53.40;101139.56;5064794;28;19913;-47
2023/09/01 02:58:06;;;;;;;;;;;;;;;21.37;53.59;101147.84;5064758;28;19917;-48
2023/09/01 03:00:32;;;;;;;;;;;;;;;21.36;53.51;101149.69;5064962;28;19943;-47
2023/09/01 03:02:57;;;;;;;;;;;;;;;21.36;53.52;101143.44;5064326;28;20385;-46
2023/09/01 03:05:23;;;;;;;;;;;;;;;21.36;53.41;101141.56;5064805;28;20309;-51
2023/09/01 03:07:48;;;;;;;;;;;;;;;21.34;53.34;101135.53;5064174;28;19934;-48
2023/09/01 03:10:14;;;;;;;;;;;;;;;21.33;53.28;101139.25;5065390;28;19913;-46
2023/09/01 03:12:39;;;;;;;;;;;;;;;21.34;53.35;101142.78;5064690;28;20278;-51
2023/09/01 03:15:05;;;;;;;;;;;;;;;21.32;53.36;101142.97;5064721;28;20406;-50
2023/09/01 03:17:30;;;;;;;;;;;;;;;21.31;53.25;101141.25;5064108;28;19913;-48
2023/09/01 03:19:56;;;;;;;;;;;;;;;21.32;53.68;101142.13;5064430;28;19925;-49
2023/09/01 03:22:22;;;;;;;;;;;;;;;21.30;53.35;101133.31;5063855;28;19947;-50
2023/09/01 03:24:47;;;;;;;;;;;;;;;21.29;53.21;101140.59;5064960;28;19916;-47
2023/09/01 03:27:14;;;;;;;;;;;;;;;21.29;53.51;101147.88;5062562;28;19942;-48
2023/09/01 03:29:39;;;;;;;;;;;;;;;21.28;53.58;101143.47;5063386;28;19970;-51
2023/09/01 03:32:04;;;;;;;;;;;;;;;21.27;53.55;101139.91;5064293;28;19916;-50
2023/09/01 03:34:30;;;;;;;;;;;;;;;21.27;53.68;101130.97;5063740;28;19916;-49
2023/09/01 03:36:55;;;;;;;;;;;;;;;21.26;53.22;101138.25;5064106;28;19920;-46
2023/09/01 03:39:20;;;;;;;;;;;;;;;21.25;53.20;101133.84;5064206;28;19984;-48
2023/09/01 03:41:45;;;;;;;;;;;;;;;21.25;53.53;101133.03;5063842;28;19938;-46
2023/09/01 03:44:10;;;;;;;;;;;;;;;21.24;53.37;101134.88;5063316;28;19912;-48
2023/09/01 03:46:36;;;;;;;;;;;;;;;21.23;53.50;101133.19;5064377;28;19917;-49
2023/09/01 03:49:01;;;;;;;;;;;;;;;21.24;53.40;101140.31;5063930;28;19917;-47
2023/09/01 03:51:26;;;;;;;;;;;;;;;21.22;53.20;101134.22;5062046;28;19928;-48
2023/09/01 03:53:51;;;;;;;;;;;;;;;21.21;53.56;101136.06;5063883;28;19909;-51
2023/09/01 03:56:17;;;;;;;;;;;;;;;21.21;53.29;101136.06;5064057;28;19923;-49
2023/09/01 03:58:42;;;;;;;;;;;;;;;21.21;53.36;101137.94;5063634;28;19917;-46
2023/09/01 04:01:08;;;;;;;;;;;;;;;21.20;53.45;101134.41;5063322;28;19963;-48
2023/09/01 04:03:36;;;;;;;;;;;;;;;21.19;53.48;101134.56;5063145;28;19924;-47
2023/09/01 04:06:03;;;;;;;;;;;;;;;21.18;53.52;101141.00;5071918;28;19996;-51
2023/09/01 04:08:28;;;;;;;;;;;;;;;21.18;53.40;101141.00;5062248;28;19976;-48
2023/09/01 04:10:53;;;;;;;;;;;;;;;21.17;53.45;101136.63;5063445;28;19913;-51
2023/09/01 04:13:18;;;;;;;;;;;;;;;21.16;53.21;101134.94;5063607;28;19920;-48
2023/09/01 04:15:44;;;;;;;;;;;;;;;21.15;53.29;101134.09;5063788;28;19987;-46
2023/09/01 04:18:09;;;;;;;;;;;;;;;21.15;53.54;101144.03;5063163;28;19960;-49
2023/09/01 04:20:34;;;;;;;;;;;;;;;21.15;53.33;101138.63;5063092;28;19927;-46
2023/09/01 04:22:59;;;;;;;;;;;;;;;21.14;53.22;101134.25;5062982;28;19921;-50
2023/09/01 04:25:24;;;;;;;;;;;;;;;21.13;53.37;101132.56;5063679;28;19916;-46
2023/09/01 04:27:50;;;;;;;;;;;;;;;21.13;53.62;101138.81;5062843;28;19913;-48
2023/09/01 04:30:15;;;;;;;;;;;;;;;21.13;53.42;101138.00;5062683;28;19916;-45
2023/09/01 04:32:44;;;;;;;;;;;;;;;21.12;53.49;101139.84;5060345;28;19924;-47
2023/09/01 04:35:09;;;;;;;;;;;;;;;21.12;53.43;101147.13;5062496;28;19912;-51
2023/09/01 04:37:34;;;;;;;;;;;;;;;21.12;53.39;101145.25;5062579;28;19924;-50
2023/09/01 04:39:59;;;;;;;;;;;;;;;21.12;53.59;101141.72;5063877;28;19916;-46
2023/09/01 04:42:25;;;;;;;;;;;;;;;21.11;53.55;101138.19;5062913;28;19971;-50
2023/09/01 04:44:50;;;;;;;;;;;;;;;21.10;53.62;101133.75;5063655;28;19944;-46
2023/09/01 04:47:15;;;;;;;;;;;;;;;21.10;53.68;101139.16;5061050;28;19988;-46
2023/09/01 04:49:40;;;;;;;;;;;;;;;21.11;53.74;101140.88;5060863;28;19916;-48
2023/09/01 04:52:05;;;;;;;;;;;;;;;21.10;53.50;101135.63;5062320;28;19951;-51
2023/09/01 04:54:31;;;;;;;;;;;;;;;21.11;53.82;101134.59;5065394;28;19970;-51
2023/09/01 04:56:56;;;;;;;;;;;;;;;21.10;53.92;101141.88;5067641;28;19923;-50
2023/09/01 04:59:21;;;;;;;;;;;;;;;21.11;53.79;101148.13;5066893;28;20094;-50
2023/09/01 05:01:46;;;;;;;;;;;;;;;21.11;54.04;101153.53;5067271;28;19917;-50
2023/09/01 05:04:12;;;;;;;;;;;;;;;21.12;53.86;101152.53;5066289;28;20043;-49
2023/09/01 05:06:37;;;;;;;;;;;;;;;21.13;54.18;101151.50;5063713;28;19913;-50
2023/09/01 05:09:03;;;;;;;;;;;;;;;21.11;53.83;101151.69;5066667;28;19912;-51
2023/09/01 05:11:29;;;;;;;;;;;;;;;21.12;54.03;101147.13;5067318;28;19955;-51
2023/09/01 05:13:55;;;;;;;;;;;;;;;21.12;53.95;101155.22;5066708;28;19913;-51
2023/09/01 05:16:20;;;;;;;;;;;;;;;21.12;54.10;101149.81;5066956;28;19977;-49
2023/09/01 05:18:46;;;;;;;;;;;;;;;21.12;54.19;101147.13;5066547;28;20263;-50
2023/09/01 05:21:12;;;;;;;;;;;;;;;21.13;54.44;101156.91;5064153;28;19956;-47
2023/09/01 05:23:37;;;;;;;;;;;;;;;21.12;54.09;101152.53;5066213;28;19980;-46
2023/09/01 05:26:02;;;;;;;;;;;;;;;21.13;54.33;101154.22;5066662;28;19913;-48
2023/09/01 05:28:27;;;;;;;;;;;;;;;21.12;54.28;101153.38;5064323;28;20370;-51
2023/09/01 05:30:55;;;;;;;;;;;;;;;21.12;54.40;101157.94;5064563;28;19917;-46
2023/09/01 05:33:20;;;;;;;;;;;;;;;21.12;54.35;101155.22;5065843;28;19920;-46
2023/09/01 05:35:45;;;;;;;;;;;;;;;21.13;54.50;101156.91;5066040;28;19921;-48
2023/09/01 05:38:10;;;;;;;;;;;;;;;21.11;54.49;101159.81;5065579;28;19974;-50
2023/09/01 05:40:37;;;;;;;;;;;;;;;21.12;54.33;101160.66;5066778;28;19967;-50
2023/09/01 05:43:02;;;;;;;;;;;;;;;21.12;54.58;101168.75;5066250;28;19917;-49
2023/09/01 05:45:27;;;;;;;;;;;;;;;21.11;54.25;101158.94;5066424;28;19923;-47
2023/09/01 05:47:53;;;;;;;;;;;;;;;21.12;54.27;101166.06;5065793;28;19921;-46
2023/09/01 05:50:18;;;;;;;;;;;;;;;21.12;54.55;101157.94;5066548;28;19912;-49
2023/09/01 05:52:44;;;;;;;;;;;;;;;21.11;54.28;101159.81;5065629;28;19920;-47
2023/09/01 05:55:09;;;;;;;;;;;;;;;21.11;54.61;101157.09;5065104;28;19913;-49
2023/09/01 05:57:34;;;;;;;;;;;;;;;21.12;54.48;101160.66;5065380;28;19938;-50
2023/09/01 05:59:59;;;;;;;;;;;;;;;21.12;54.53;101169.59;5066578;28;19916;-49
2023/09/01 06:02:24;;;;;;;;;;;;;;;21.12;54.55;101166.88;5065609;28;20373;-48
2023/09/01 06:04:50;;;;;;;;;;;;;;;21.13;54.44;101170.44;5065353;28;20293;-49
2023/09/01 06:07:15;;;;;;;;;;;;;;;21.12;54.40;101169.59;5064296;28;19928;-46
2023/09/01 06:09:40;;;;;;;;;;;;;;;21.13;54.65;101167.72;5065705;28;19916;-47
2023/09/01 06:12:05;;;;;;;;;;;;;;;21.12;54.50;101164.19;5065752;28;19912;-47
2023/09/01 06:14:31;;;;;;;;;;;;;;;21.12;54.60;101172.28;5065114;28;20362;-46
2023/09/01 06:16:56;;;;;;;;;;;;;;;21.12;54.50;101177.72;5065548;28;20054;-47
2023/09/01 06:19:21;;;;;;;;;;;;;;;21.12;54.58;101172.28;5065529;28;19913;-47
2023/09/01 06:21:46;;;;;;;;;;;;;;;21.13;54.67;101165.03;5065344;28;19917;-49
2023/09/01 06:24:11;;;;;;;;;;;;;;;21.13;54.84;101167.72;5064899;28;19912;-46
2023/09/01 06:26:37;;;;;;;;;;;;;;;21.13;54.82;101159.63;5065668;28;19927;-50
2023/09/01 06:29:03;;;;;;;;;;;;;;;21.12;54.54;101153.38;5065427;28;19934;-48
2023/09/01 06:31:28;;;;;;;;;;;;;;;21.13;54.53;101165.88;5065861;28;19917;-51
2023/09/01 06:33:53;;;;;;;;;;;;;;;21.13;54.63;101163.16;5064872;28;19917;-49
2023/09/01 06:36:19;;;;;;;;;;;;;;;21.13;54.91;101171.28;5064339;28;20377;-45
2023/09/01 06:38:44;;;;;;;;;;;;;;;21.14;54.88;101161.28;5064867;28;19976;-49
2023/09/01 06:41:09;;;;;;;;;;;;;;;21.15;54.56;101179.19;5065301;28;19923;-49
2023/09/01 06:43:34;;;;;;;;;;;;;;;21.14;54.84;101164.84;5064748;28;19913;-47
2023/09/01 06:46:00;;;;;;;;;;;;;;;21.14;54.75;101170.25;5063078;28;19986;-47
2023/09/01 06:48:25;;;;;;;;;;;;;;;21.14;54.83;101172.94;5060829;28;19917;-48
2023/09/01 06:50:50;;;;;;;;;;;;;;;21.14;54.56;101164.84;5061163;28;19917;-48
2023/09/01 06:53:15;;;;;;;;;;;;;;;21.14;54.77;101170.25;5062242;28;19917;-45
2023/09/01 06:55:41;;;;;;;;;;;;;;;21.15;54.93;101173.78;5065025;28;19984;-49
2023/09/01 06:58:07;;;;;;;;;;;;;;;21.14;54.82;101178.34;5064252;28;20023;-48
2023/09/01 07:00:32;;;;;;;;;;;;;;;21.14;54.91;101175.66;5064767;28;19945;-49
2023/09/01 07:02:57;;;;;;;;;;;;;;;21.15;54.62;101176.50;5064586;28;19924;-47
2023/09/01 07:05:23;;;;;;;;;;;;;;;21.15;54.65;101180.06;5063772;28;19912;-50
2023/09/01 07:07:50;;;;;;;;;;;;;;;21.14;54.88;101175.66;5063275;28;19917;-50
2023/09/01 07:10:15;;;;;;;;;;;;;;;21.14;54.71;101175.66;5064195;28;19924;-47
2023/09/01 07:12:40;;;;;;;;;;;;;;;21.15;54.82;101180.06;5062740;28;19917;-50
2023/09/01 07:15:06;;;;;;;;;;;;;;;21.14;54.53;101172.94;5064484;28;19921;-44
2023/09/01 07:17:31;;;;;;;;;;;;;;;21.15;54.55;101165.66;5064039;28;19920;-48
2023/09/01 07:19:56;;;;;;;;;;;;;;;21.15;54.58;101181.91;5064036;28;19921;-46
2023/09/01 07:22:21;;;;;;;;;;;;;;;21.15;54.57;101176.50;5063943;28;19949;-46
2023/09/01 07:24:47;;;;;;;;;;;;;;;21.14;54.53;101172.94;5064306;28;19917;-49
2023/09/01 07:27:12;;;;;;;;;;;;;;;21.14;54.68;101164.84;5064206;28;19916;-52
2023/09/01 07:29:37;;;;;;;;;;;;;;;21.14;54.51;101164.00;5063677;28;19923;-47
2023/09/01 07:32:03;;;;;;;;;;;;;;;21.14;54.52;101164.00;5063753;28;19925;-48
2023/09/01 07:34:28;;;;;;;;;;;;;;;21.14;54.57;101174.81;5063634;28;19964;-47
2023/09/01 07:36:53;;;;;;;;;;;;;;;21.14;54.45;101169.41;5063869;28;20027;-47
2023/09/01 07:39:19;;;;;;;;;;;;;;;21.14;54.59;101172.09;5063645;28;19913;-49
2023/09/01 07:41:44;;;;;;;;;;;;;;;21.14;54.36;101177.53;5064061;28;20102;-45
2023/09/01 07:44:09;;;;;;;;;;;;;;;21.14;54.66;101178.34;5061144;28;19927;-49
2023/09/01 07:46:34;;;;;;;;;;;;;;;21.14;54.44;101174.81;5064512;28;20285;-45
2023/09/01 07:49:00;;;;;;;;;;;;;;;21.14;54.54;101172.09;5063497;28;20353;-46
2023/09/01 07:51:25;;;;;;;;;;;;;;;21.14;54.67;101177.53;5063826;28;20008;-46
2023/09/01 07:53:50;;;;;;;;;;;;;;;21.13;54.61;101178.53;5061677;28;19959;-46
2023/09/01 07:56:16;;;;;;;;;;;;;;;21.13;54.53;101182.09;5064372;28;19913;-45
2023/09/01 07:58:41;;;;;;;;;;;;;;;21.14;54.44;101180.22;5063061;28;19917;-47
2023/09/01 08:01:06;;;;;;;;;;;;;;;21.13;54.41;101181.25;5064198;28;19917;-49
2023/09/01 08:03:31;;;;;;;;;;;;;;;21.13;54.40;101179.38;5059295;28;19917;-45
2023/09/01 08:05:58;;;;;;;;;;;;;;;21.13;54.58;101183.94;5061499;28;20011;-45
2023/09/01 08:08:23;;;;;;;;;;;;;;;21.12;54.53;101187.69;5060624;28;19920;-44
2023/09/01 08:10:48;;;;;;;;;;;;;;;21.13;54.35;101192.06;5060932;28;19924;-45
2023/09/01 08:13:13;;;;;;;;;;;;;;;21.12;54.40;101193.94;5058122;28;19913;-47
2023/09/01 08:15:38;;;;;;;;;;;;;;;21.12;54.32;101187.69;5058296;28;19921;-45
2023/09/01 08:18:05;;;;;;;;;;;;;;;21.12;54.42;101185.81;5059661;28;19943;-45
2023/09/01 08:20:30;;;;;;;;;;;;;;;21.13;54.66;101183.94;5062221;28;19982;-45
2023/09/01 08:22:55;;;;;;;;;;;;;;;21.12;54.73;101188.53;5062930;28;20019;-47
2023/09/01 08:25:20;;;;;;;;;;;;;;;21.12;54.64;101188.53;5062475;28;19931;-46
2023/09/01 08:27:46;;;;;;;;;;;;;;;21.13;54.88;101187.50;5063077;28;19912;-47
2023/09/01 08:30:11;;;;;;;;;;;;;;;21.15;55.09;101190.00;5060499;28;19927;-47
2023/09/01 08:32:39;;;;;;;;;;;;;;;21.16;55.01;101194.41;5060259;28;19916;-46
2023/09/01 08:35:04;;;;;;;;;;;;;;;21.15;55.25;101188.19;5063107;28;19913;-46
2023/09/01 08:37:29;;;;;;;;;;;;;;;21.15;55.14;101182.78;5061465;28;19966;-45
2023/09/01 08:39:54;;;;;;;;;;;;;;;21.16;55.25;101184.44;5062954;28;19948;-45
2023/09/01 08:42:21;;;;;;;;;;;;;;;21.16;55.08;101181.75;5061268;28;19947;-46
2023/09/01 08:44:46;;;;;;;;;;;;;;;21.16;55.12;101181.75;5063307;28;19921;-47
2023/09/01 08:47:11;;;;;;;;;;;;;;;21.18;55.18;101189.66;5063086;28;20435;-49
2023/09/01 08:49:36;;;;;;;;;;;;;;;21.18;55.05;101184.25;5061676;28;19967;-45
2023/09/01 08:52:02;;;;;;;;;;;;;;;21.17;55.31;101178.00;5062934;28;20389;-47
2023/09/01 08:54:28;;;;;;;;;;;;;;;21.17;55.13;101188.81;5062968;28;20432;-45
2023/09/01 08:56:54;;;;;;;;;;;;;;;21.18;55.05;101186.97;5063343;28;20304;-45
2023/09/01 08:59:19;;;;;;;;;;;;;;;21.18;55.08;101190.50;5062465;28;19980;-46
2023/09/01 09:01:44;;;;;;;;;;;;;;;21.19;54.87;101188.63;5063150;28;19917;-44
2023/09/01 09:04:09;;;;;;;;;;;;;;;21.20;55.17;101190.34;5077731;28;19913;-46
2023/09/01 09:06:35;;;;;;;;;;;;;;;21.20;54.93;101187.66;5062742;28;19913;-46
2023/09/01 09:09:20;;;;;;;;;;;;;;;21.20;54.85;101185.78;5062405;28;19963;-45
2023/09/01 09:11:55;;;;;;;;;;;;;;;21.20;54.87;101183.06;5062016;28;19917;-46
2023/09/01 09:14:21;;;;;;;;;;;;;;;21.21;55.30;101192.03;5059735;28;20369;-44
2023/09/01 09:16:49;;;;;;;;;;;;;;;21.19;55.08;101192.19;5078325;28;19921;-44
2023/09/01 09:19:18;;;;;;;;;;;;;;;21.20;54.74;101193.06;5060952;28;19935;-44
2023/09/01 09:21:43;;;;;;;;;;;;;;;21.20;54.83;101196.59;5061235;28;19921;-44
2023/09/01 09:24:09;;;;;;;;;;;;;;;21.20;54.91;101195.75;5061321;28;19939;-45
2023/09/01 09:26:34;;;;;;;;;;;;;;;21.21;55.26;101192.03;5053429;28;20296;-48
2023/09/01 09:29:06;;;;;;;;;;;;;;;21.19;55.33;101192.19;5057970;28;20297;-45
2023/09/01 09:31:39;;;;;;;;;;;;;;;21.20;55.36;101195.75;5059249;28;19917;-46
2023/09/01 09:34:15;;;;;;;;;;;;;;;21.20;54.98;101198.47;5061956;28;19920;-46
2023/09/01 09:36:40;;;;;;;;;;;;;;;21.20;55.17;101198.47;5061159;28;19916;-48
2023/09/01 09:39:18;;;;;;;;;;;;;;;21.19;55.13;101196.75;5058093;28;19917;-46
2023/09/01 09:41:46;;;;;;;;;;;;;;;21.19;55.50;101203.00;5079758;28;19970;-46
2023/09/01 09:44:12;;;;;;;;;;;;;;;21.19;55.22;101203.00;5063591;28;19916;-46
2023/09/01 09:46:41;;;;;;;;;;;;;;;21.19;55.56;101207.56;5061866;28;19924;-47
2023/09/01 09:49:07;;;;;;;;;;;;;;;21.19;55.33;101202.16;5063698;28;19931;-49
2023/09/01 09:51:32;;;;;;;;;;;;;;;21.18;55.34;101204.03;5061918;28;19912;-46
2023/09/01 09:53:57;;;;;;;;;;;;;;;21.19;55.29;101207.56;5066071;28;19913;-47
2023/09/01 09:56:35;;;;;;;;;;;;;;;21.19;55.36;101215.69;5077752;28;19928;-46
2023/09/01 09:59:03;;;;;;;;;;;;;;;21.22;55.11;101216.16;5063045;28;19912;-46
2023/09/01 10:01:29;;;;;;;;;;;;;;;21.23;54.91;101217.84;5065402;28;19928;-46
2023/09/01 10:03:54;;;;;;;;;;;;;;;21.16;55.15;101219.59;5063842;28;19916;-57
2023/09/01 10:06:19;;;;;;;;;;;;;;;21.12;55.13;101215.56;5065245;28;19913;-58
2023/09/01 10:08:45;;;;;;;;;;;;;;;21.10;55.70;101212.16;5061797;28;19916;-60
2023/09/01 10:11:11;;;;;;;;;;;;;;;21.10;55.55;101214.03;5062266;28;19920;-58
2023/09/01 10:13:36;;;;;;;;;;;;;;;21.10;55.44;101203.22;5064255;28;19913;-58
2023/09/01 10:16:02;;;;;;;;;;;;;;;21.11;55.33;101202.19;5064620;28;19913;-58
2023/09/01 10:18:27;;;;;;;;;;;;;;;21.11;55.60;101194.94;5065376;28;19921;-56
2023/09/01 10:20:52;;;;;;;;;;;;;;;21.12;55.68;101199.34;5070177;28;19932;-57
2023/09/01 10:23:17;;;;;;;;;;;;;;;21.13;55.60;101205.59;5063987;28;19921;-57
2023/09/01 10:26:02;;;;;;;;;;;;;;;21.13;55.65;101211.81;5064454;28;19959;-57
2023/09/01 10:28:28;;;;;;;;;;;;;;;21.14;55.98;101213.50;5064886;28;20051;-59
2023/09/01 10:30:53;;;;;;;;;;;;;;;21.16;56.06;101221.47;5063547;28;20447;-58
2023/09/01 10:33:25;;;;;;;;;;;;;;;21.15;56.22;101217.91;5064088;28;20254;-60
2023/09/01 10:35:51;;;;;;;;;;;;;;;21.16;55.98;101222.31;5056377;28;19921;-58
2023/09/01 10:38:21;;;;;;;;;;;;;;;21.16;56.09;101222.31;5060797;28;19919;-57
2023/09/01 10:40:49;;;;;;;;;;;;;;;21.16;56.36;101227.72;5064231;28;20012;-58
2023/09/01 10:43:33;;;;;;;;;;;;;;;21.17;56.07;101225.84;5062036;28;19936;-58
2023/09/01 10:46:16;;;;;;;;;;;;;;;21.16;56.15;101225.00;5062088;28;19990;-58
2023/09/01 10:48:47;;;;;;;;;;;;;;;21.17;56.09;101225.84;5063256;28;19983;-57
2023/09/01 10:51:19;;;;;;;;;;;;;;;21.17;56.16;101232.09;5061487;28;19919;-55
2023/09/01 10:53:45;;;;;;;;;;;;;;;21.18;56.07;101232.94;5060565;28;19952;-58
2023/09/01 10:56:15;;;;;;;;;;;;;;;21.17;56.39;101229.38;5060808;28;19913;-51
2023/09/01 10:58:44;;;;;;;;;;;;;;;21.18;56.30;101222.94;5063067;28;19966;-58
2023/09/01 11:01:26;;;;;;;;;;;;;;;21.18;56.33;101212.13;5060906;28;19920;-58
2023/09/01 11:03:51;;;;;;;;;;;;;;;21.17;56.18;101218.56;5059776;28;19942;-58
2023/09/01 11:06:16;;;;;;;;;;;;;;;21.18;56.62;101227.53;5062666;28;19980;-58
2023/09/01 11:08:55;;;;;;;;;;;;;;;21.18;56.41;101233.78;5061372;28;19920;-58
2023/09/01 11:11:20;;;;;;;;;;;;;;;21.18;56.48;101235.63;5061385;28;19984;-60
2023/09/01 11:13:45;;;;;;;;;;;;;;;21.18;56.60;101233.78;5061147;28;19917;-58
2023/09/01 11:16:11;;;;;;;;;;;;;;;21.18;56.41;101232.94;5061884;28;19917;-58
2023/09/01 11:18:36;;;;;;;;;;;;;;;21.18;56.56;101233.78;5062542;28;19917;-58
2023/09/01 11:21:02;;;;;;;;;;;;;;;21.18;56.54;101231.06;5063780;28;19917;-58
2023/09/01 11:23:27;;;;;;;;;;;;;;;21.18;56.34;101239.19;5059772;28;19968;-58
2023/09/01 11:25:59;;;;;;;;;;;;;;;21.18;56.46;101236.47;5059896;28;19917;-58
2023/09/01 11:28:28;;;;;;;;;;;;;;;21.19;56.12;101234.59;5062804;28;19913;-58
2023/09/01 11:30:54;;;;;;;;;;;;;;;21.20;56.27;101233.63;5062148;28;20481;-58
2023/09/01 11:33:20;;;;;;;;;;;;;;;21.20;56.06;101244.44;5062674;28;19920;-57
2023/09/01 11:35:45;;;;;;;;;;;;;;;21.19;56.15;101240.84;5058707;28;19971;-57
2023/09/01 11:38:20;;;;;;;;;;;;;;;21.20;56.03;101236.31;5062012;28;20404;-58
2023/09/01 11:40:46;;;;;;;;;;;;;;;21.21;56.11;101240.69;5060728;28;20456;-62
2023/09/01 11:43:11;;;;;;;;;;;;;;;21.20;55.93;101245.25;5060374;28;19921;-58
2023/09/01 11:45:44;;;;;;;;;;;;;;;21.21;56.24;101246.94;5061976;28;19913;-57
2023/09/01 11:48:09;;;;;;;;;;;;;;;21.21;55.89;101243.41;5060419;28;20385;-60
2023/09/01 11:50:36;;;;;;;;;;;;;;;21.21;56.03;101251.50;5060669;28;20544;-58
2023/09/01 11:53:02;;;;;;;;;;;;;;;21.21;55.81;101255.06;5060248;28;19920;-58
2023/09/01 11:55:34;;;;;;;;;;;;;;;21.22;55.95;101262.16;5058518;28;19921;-58
2023/09/01 11:57:59;;;;;;;;;;;;;;;21.21;55.95;101259.63;5054470;28;19917;-60
2023/09/01 12:00:32;;;;;;;;;;;;;;;21.21;56.01;101257.75;5061086;28;20422;-58
2023/09/01 12:02:57;;;;;;;;;;;;;;;21.22;56.11;101266.72;5061113;28;19921;-59
2023/09/01 12:05:32;;;;;;;;;;;;;;;21.20;56.21;101258.78;5069618;28;20435;-51
2023/09/01 12:07:59;;;;;;;;;;;;;;;21.21;56.08;101262.34;5055219;28;20084;-58
2023/09/01 12:10:24;;;;;;;;;;;;;;;21.21;56.06;101270.44;5059177;28;19934;-58
2023/09/01 12:12:49;;;;;;;;;;;;;;;21.21;56.25;101265.03;5062307;28;19954;-58
2023/09/01 12:15:15;;;;;;;;;;;;;;;21.21;56.15;101262.34;5061987;28;19913;-58
2023/09/01 12:17:40;;;;;;;;;;;;;;;21.21;56.18;101248.81;5075989;28;19923;-58
2023/09/01 12:20:06;;;;;;;;;;;;;;;21.21;56.18;101256.91;5057444;28;19925;-57
2023/09/01 12:22:31;;;;;;;;;;;;;;;21.21;56.45;101257.75;5060649;28;19925;-58
2023/09/01 12:24:59;;;;;;;;;;;;;;;21.21;56.25;101259.63;5061476;28;20340;-57
2023/09/01 12:27:25;;;;;;;;;;;;;;;21.21;56.30;101260.47;5059724;28;19916;-57
2023/09/01 12:29:50;;;;;;;;;;;;;;;21.21;56.33;101263.16;5057929;28;19940;-57